Temp: 18.7°C   Baro: 1017.6mb
  Wind: 0.0mph   Dir: W (274°)
  Rain: 0.2mm (0.0mm/hr)
  Solar: 0W/m2  Hum: 84%
 
Bath Spa Weather Station Historical Data
Daily Summary for December 16, 2019 Units:  Metric    English   Both
Daily Weekly Monthly Yearly Custom
  High: Low: Average:
Temperature: 9.7 °C 4.5 °C 6.2 °C
Dew Point: 6.1 °C 2.8 °C 4.2 °C
Humidity: 93% 76.4% 87%
Wind Speed: 11.3km/h 0km/h 1.8km/h
Wind Gust: 20.9km/h - -
Wind- - SW
Pressure: 1000.2 hPa 996.8 hPa -
Precipitation: 0 mm    
Historical Graphs
 
 
Tabular Data for December 16, 2019
Time Temperature Dew Point Pressure Wind Wind Speed Wind Gust Humidity Rainfall Rate (Hourly) solar
00:04 6.5 °C 4.7 °C 996.8 hPa SSW 5.5 km/h 12.9 km/h 87.8% 0 mm 0 W/m2
00:09 6.6 °C 4.8 °C 996.8 hPa SW 9.2 km/h 17.7 km/h 88% 0 mm 0 W/m2
00:14 6.7 °C 4.8 °C 996.8 hPa SW 7.7 km/h 17.7 km/h 88% 0 mm 0 W/m2
00:19 6.7 °C 4.7 °C 996.8 hPa SW 4.8 km/h 14.5 km/h 87% 0 mm 0 W/m2
00:24 6.7 °C 4.7 °C 996.8 hPa SSW 5.8 km/h 12.9 km/h 87% 0 mm 0 W/m2
00:29 6.8 °C 4.8 °C 996.8 hPa SW 9.7 km/h 14.5 km/h 87% 0 mm 0 W/m2
00:34 6.8 °C 4.8 °C 996.8 hPa SSW 9 km/h 14.5 km/h 87% 0 mm 0 W/m2
00:39 6.8 °C 4.7 °C 996.8 hPa SSW 11.3 km/h 19.3 km/h 86% 0 mm 0 W/m2
00:44 6.9 °C 4.6 °C 996.8 hPa SSW 8.2 km/h 20.9 km/h 85.2% 0 mm 0 W/m2
00:49 6.9 °C 4.6 °C 997.2 hPa SW 7.2 km/h 20.9 km/h 84.8% 0 mm 0 W/m2
00:54 6.8 °C 4.3 °C 997.2 hPa WSW 8 km/h 14.5 km/h 84% 0 mm 0 W/m2
00:59 6.8 °C 4.3 °C 997.2 hPa WSW 6.1 km/h 14.5 km/h 84% 0 mm 0 W/m2
01:04 6.7 °C 4.2 °C 997.2 hPa WSW 6.8 km/h 12.9 km/h 84% 0 mm 0 W/m2
01:09 6.7 °C 4.2 °C 997.2 hPa WSW 4.3 km/h 12.9 km/h 84% 0 mm 0 W/m2
01:14 6.6 °C 4.1 °C 997.2 hPa WSW 4 km/h 12.9 km/h 84% 0 mm 0 W/m2
01:19 6.6 °C 4.1 °C 997.2 hPa WSW 6.8 km/h 11.3 km/h 84% 0 mm 0 W/m2
01:24 6.6 °C 4.1 °C 997.2 hPa West 3.4 km/h 9.7 km/h 84% 0 mm 0 W/m2
01:29 6.6 °C 4.1 °C 997.2 hPa West 5.1 km/h 12.9 km/h 84% 0 mm 0 W/m2
01:34 6.6 °C 4.2 °C 997.2 hPa West 4.5 km/h 9.7 km/h 84.8% 0 mm 0 W/m2
01:39 6.6 °C 4.3 °C 997.2 hPa WSW 6.1 km/h 11.3 km/h 85% 0 mm 0 W/m2
01:44 6.5 °C 4.2 °C 997.2 hPa WSW 1.3 km/h 6.4 km/h 85% 0 mm 0 W/m2
01:49 6.5 °C 4.2 °C 997.5 hPa WSW 3.7 km/h 8 km/h 85% 0 mm 0 W/m2
01:54 6.4 °C 4.1 °C 997.5 hPa WSW 1.4 km/h 8 km/h 85% 0 mm 0 W/m2
01:59 6.3 °C 4.1 °C 997.5 hPa WSW 6.4 km/h 12.9 km/h 85% 0 mm 0 W/m2
02:04 6.3 °C 4.1 °C 997.5 hPa West 3.9 km/h 12.9 km/h 85% 0 mm 0 W/m2
02:09 6.3 °C 4 °C 997.5 hPa West 2.7 km/h 11.3 km/h 85% 0 mm 0 W/m2
02:14 6.3 °C 3.9 °C 997.9 hPa WSW 5.6 km/h 11.3 km/h 85% 0 mm 0 W/m2
02:19 6.3 °C 4 °C 997.5 hPa WSW 6.6 km/h 14.5 km/h 85% 0 mm 0 W/m2
02:24 6.4 °C 4.1 °C 997.9 hPa SW 5 km/h 12.9 km/h 85% 0 mm 0 W/m2
02:29 6.4 °C 4 °C 997.9 hPa WSW 2.3 km/h 9.7 km/h 84.6% 0 mm 0 W/m2
02:34 6.3 °C 3.8 °C 997.9 hPa SW 4.8 km/h 16.1 km/h 84% 0 mm 0 W/m2
02:38 6.4 °C 3.9 °C 997.9 hPa SW 3.5 km/h 16.1 km/h 84% 0 mm 0 W/m2
02:44 6.4 °C 3.9 °C 997.9 hPa WSW 5.1 km/h 11.3 km/h 84% 0 mm 0 W/m2
02:49 6.4 °C 3.9 °C 997.9 hPa SW 9.3 km/h 17.7 km/h 84% 0 mm 0 W/m2
02:54 6.6 °C 3.9 °C 997.9 hPa SW 5.8 km/h 12.9 km/h 83.4% 0 mm 0 W/m2
02:59 6.6 °C 3.9 °C 997.9 hPa SW 8 km/h 16.1 km/h 83% 0 mm 0 W/m2
03:04 6.6 °C 3.9 °C 997.9 hPa SSW 6 km/h 17.7 km/h 82.8% 0 mm 0 W/m2
03:09 6.7 °C 3.8 °C 997.9 hPa SSW 7.4 km/h 12.9 km/h 82% 0 mm 0 W/m2
03:14 6.7 °C 3.8 °C 997.9 hPa SW 9.7 km/h 14.5 km/h 82% 0 mm 0 W/m2
03:19 6.7 °C 3.8 °C 997.9 hPa SW 4.3 km/h 14.5 km/h 82% 0 mm 0 W/m2
03:24 6.6 °C 3.7 °C 997.9 hPa SW 0.8 km/h 8 km/h 82% 0 mm 0 W/m2
03:29 6.4 °C 3.6 °C 997.9 hPa SSW 3.2 km/h 9.7 km/h 82% 0 mm 0 W/m2
03:34 6.3 °C 3.6 °C 997.9 hPa SSW 1 km/h 8 km/h 82.4% 0 mm 0 W/m2
03:39 6.2 °C 3.5 °C 997.9 hPa SSW 5.8 km/h 12.9 km/h 83% 0 mm 0 W/m2
03:44 6.2 °C 3.4 °C 997.9 hPa SSW 4.5 km/h 9.7 km/h 83% 0 mm 0 W/m2
03:49 6.1 °C 3.4 °C 997.9 hPa SSW 4 km/h 8 km/h 83.2% 0 mm 0 W/m2
03:54 6.1 °C 3.6 °C 997.9 hPa SSW 1.9 km/h 8 km/h 84% 0 mm 0 W/m2
03:59 6.1 °C 3.6 °C 997.9 hPa SSW 3.2 km/h 8 km/h 84% 0 mm 0 W/m2
04:04 6 °C 3.5 °C 997.9 hPa South 6.1 km/h 11.3 km/h 84% 0 mm 0 W/m2
04:09 5.9 °C 3.4 °C 997.9 hPa South 3.4 km/h 11.3 km/h 84% 0 mm 0 W/m2
04:14 6 °C 3.7 °C 997.9 hPa South 1.4 km/h 8 km/h 84.6% 0 mm 0 W/m2
04:19 6.1 °C 3.6 °C 997.9 hPa SSW 4 km/h 8 km/h 84.2% 0 mm 0 W/m2
04:24 6.2 °C 3.7 °C 997.9 hPa SSW 3.2 km/h 8 km/h 84% 0 mm 0 W/m2
04:29 6.2 °C 3.7 °C 997.9 hPa SSW 2.4 km/h 6.4 km/h 84% 0 mm 0 W/m2
04:34 6.2 °C 3.7 °C 997.9 hPa SSW 2.6 km/h 8 km/h 84% 0 mm 0 W/m2
04:39 6.2 °C 3.7 °C 997.9 hPa SSW 2.6 km/h 8 km/h 84% 0 mm 0 W/m2
04:44 6.1 °C 3.6 °C 997.9 hPa SSW 2.3 km/h 11.3 km/h 84% 0 mm 0 W/m2
04:49 6.1 °C 3.6 °C 997.9 hPa SSW 1.3 km/h 8 km/h 84% 0 mm 0 W/m2
04:54 6 °C 3.7 °C 997.9 hPa SSW 1 km/h 11.3 km/h 85% 0 mm 0 W/m2
04:59 6.1 °C 3.7 °C 997.9 hPa SSW 1.3 km/h 11.3 km/h 85% 0 mm 0 W/m2
05:04 6 °C 3.7 °C 997.9 hPa SSW 1.3 km/h 4.8 km/h 85% 0 mm 0 W/m2
05:09 5.9 °C 3.7 °C 997.9 hPa SSW 1.6 km/h 6.4 km/h 85% 0 mm 0 W/m2
05:14 5.9 °C 3.6 °C 998.2 hPa SSW 3.5 km/h 8 km/h 85% 0 mm 0 W/m2
05:19 5.9 °C 3.6 °C 998.2 hPa SSW 4.5 km/h 11.3 km/h 85% 0 mm 0 W/m2
05:24 5.9 °C 3.7 °C 998.2 hPa SSW 1.9 km/h 11.3 km/h 85% 0 mm 0 W/m2
05:29 6 °C 3.7 °C 998.2 hPa SSW 4.7 km/h 12.9 km/h 85% 0 mm 0 W/m2
05:34 6.1 °C 3.7 °C 998.2 hPa SSW 5 km/h 14.5 km/h 85% 0 mm 0 W/m2
05:39 6 °C 3.7 °C 998.2 hPa Calm   9.7 km/h 85% 0 mm 0 W/m2
05:44 5.8 °C 3.6 °C 998.2 hPa SSW 1.9 km/h 9.7 km/h 85% 0 mm 0 W/m2
05:49 5.8 °C 3.5 °C 998.2 hPa SSW 6.4 km/h 17.7 km/h 85% 0 mm 0 W/m2
05:54 5.9 °C 3.6 °C 998.2 hPa SW 4 km/h 12.9 km/h 85% 0 mm 0 W/m2
05:59 6 °C 3.7 °C 998.2 hPa SW 2.9 km/h 9.7 km/h 85% 0 mm 0 W/m2
06:04 5.9 °C 3.6 °C 998.2 hPa SW 2.9 km/h 9.7 km/h 85% 0 mm 0 W/m2
06:09 5.8 °C 3.5 °C 998.2 hPa SW 5.1 km/h 14.5 km/h 85% 0 mm 0 W/m2
06:14 5.8 °C 3.5 °C 998.2 hPa SW 0.6 km/h 8 km/h 85% 0 mm 0 W/m2
06:19 5.7 °C 3.4 °C 998.2 hPa SW 1.3 km/h 4.8 km/h 85% 0 mm 0 W/m2
06:24 5.6 °C 3.3 °C 998.2 hPa SW 1.6 km/h 6.4 km/h 85% 0 mm 0 W/m2
06:28 5.4 °C 3.2 °C 998.5 hPa SW 6.9 km/h 9.7 km/h 85% 0 mm 0 W/m2
06:34 5.3 °C 3.1 °C 998.5 hPa SW 5.8 km/h 12.9 km/h 85.6% 0 mm 0 W/m2
06:39 5.3 °C 3.1 °C 998.5 hPa Calm     86% 0 mm 0 W/m2
06:44 5.2 °C 3.1 °C 998.5 hPa SW 3.9 km/h 8 km/h 86% 0 mm 0 W/m2
06:49 5.2 °C 3.1 °C 998.5 hPa SW 1.9 km/h 9.7 km/h 86.2% 0 mm 0 W/m2
06:54 5.2 °C 3.2 °C 998.5 hPa SW 1.3 km/h 9.7 km/h 87% 0 mm 0 W/m2
06:59 5.2 °C 3.2 °C 998.5 hPa SW 5.3 km/h 11.3 km/h 87% 0 mm 0 W/m2
07:04 5.2 °C 3.2 °C 998.5 hPa SW 0.3 km/h 4.8 km/h 87% 0 mm 0 W/m2
07:09 5.1 °C 3.1 °C 998.5 hPa SW 1 km/h 4.8 km/h 87% 0 mm 0 W/m2
07:14 5.1 °C 3.1 °C 998.5 hPa Calm   6.4 km/h 87% 0 mm 0 W/m2
07:19 5.1 °C 3.1 °C 998.5 hPa SW 5.6 km/h 12.9 km/h 87% 0 mm 0 W/m2
07:24 5 °C 3 °C 998.5 hPa Calm   12.9 km/h 87% 0 mm 0 W/m2
07:29 4.9 °C 3 °C 998.9 hPa SW 1.3 km/h 8 km/h 87.4% 0 mm 0 W/m2
07:34 4.8 °C 2.9 °C 998.9 hPa SW 1.9 km/h 8 km/h 87.8% 0 mm 0 W/m2
07:39 4.8 °C 3.1 °C 998.9 hPa Calm   4.8 km/h 88% 0 mm 0 W/m2
07:44 5 °C 3.2 °C 998.9 hPa Calm     88% 0 mm 0 W/m2
07:49 4.9 °C 3.1 °C 998.9 hPa SW 0.6 km/h 3.2 km/h 88% 0 mm 0 W/m2
07:54 4.7 °C 2.9 °C 999.2 hPa SW 7.4 km/h 17.7 km/h 88% 0 mm 0 W/m2
07:59 4.7 °C 2.9 °C 999.2 hPa WSW 2.6 km/h 12.9 km/h 88% 0 mm 0 W/m2
08:03 4.7 °C 2.9 °C 999.2 hPa WSW 7.2 km/h 16.1 km/h 88.3% 0 mm 0 W/m2
08:09 4.9 °C 3.2 °C 999.2 hPa WSW 1.3 km/h 16.1 km/h 89% 0 mm 0 W/m2
08:14 4.9 °C 3.3 °C 999.2 hPa WSW 5.5 km/h 14.5 km/h 89% 0 mm 0 W/m2
08:19 4.9 °C 3.2 °C 999.5 hPa WSW 7.2 km/h 11.3 km/h 89% 0 mm 0 W/m2
08:24 4.9 °C 3.2 °C 999.5 hPa WSW 1.9 km/h 9.7 km/h 89% 0 mm 7 W/m2
08:29 4.9 °C 3.2 °C 999.5 hPa WSW 2.3 km/h 8 km/h 89% 0 mm 9 W/m2
08:34 4.8 °C 3.2 °C 999.5 hPa Calm   1.6 km/h 89% 0 mm 9 W/m2
08:39 4.8 °C 3.1 °C 999.5 hPa Calm     89% 0 mm 11 W/m2
08:44 4.7 °C 2.9 °C 999.5 hPa Calm     88.4% 0 mm 12 W/m2
08:49 4.6 °C 2.9 °C 999.9 hPa Calm     88.8% 0 mm 14 W/m2
08:54 4.6 °C 2.9 °C 999.9 hPa Calm     89% 0 mm 18 W/m2
08:58 4.6 °C 2.9 °C 999.9 hPa Calm   1.6 km/h 89% 0 mm 19 W/m2
09:04 4.6 °C 2.8 °C 999.9 hPa WSW 3.2 km/h 6.4 km/h 89% 0 mm 23 W/m2
09:09 4.5 °C 2.8 °C 999.9 hPa WSW 1.9 km/h 6.4 km/h 89% 0 mm 26 W/m2
09:14 4.6 °C 2.9 °C 999.9 hPa WSW 2.9 km/h 6.4 km/h 89% 0 mm 30 W/m2
09:19 4.7 °C 3 °C 999.9 hPa WSW 5.8 km/h 8 km/h 89.2% 0 mm 35 W/m2
09:24 4.8 °C 3.3 °C 999.9 hPa WSW 3.9 km/h 8 km/h 90% 0 mm 37 W/m2
09:29 4.8 °C 3.3 °C 999.9 hPa WSW 0.3 km/h 4.8 km/h 90% 0 mm 39 W/m2
09:33 4.8 °C 3.3 °C 999.9 hPa Calm   4.8 km/h 90% 0 mm 40 W/m2
09:39 4.8 °C 3.3 °C 999.9 hPa Calm   3.2 km/h 90% 0 mm 40 W/m2
09:44 4.9 °C 3.4 °C 999.9 hPa WSW 2.3 km/h 4.8 km/h 90% 0 mm 44 W/m2
09:49 4.9 °C 3.4 °C 1000.2 hPa WSW 1.3 km/h 6.4 km/h 90% 0 mm 46 W/m2
09:54 5.1 °C 3.6 °C 1000.2 hPa WSW 0.6 km/h 6.4 km/h 90% 0 mm 53 W/m2
09:59 5 °C 3.5 °C 1000.2 hPa Calm   6.4 km/h 90% 0 mm 53 W/m2
10:04 5 °C 3.5 °C 1000.2 hPa Calm   1.6 km/h 90% 0 mm 53 W/m2
10:09 5.1 °C 3.6 °C 1000.2 hPa Calm   1.6 km/h 90% 0 mm 58 W/m2
10:14 5.1 °C 3.6 °C 1000.2 hPa Calm     90% 0 mm 63 W/m2
10:19 5.2 °C 3.7 °C 1000.2 hPa Calm     90% 0 mm 67 W/m2
10:24 5.2 °C 3.7 °C 1000.2 hPa Calm     90% 0 mm 67 W/m2
10:29 5.3 °C 3.8 °C 1000.2 hPa Calm     90% 0 mm 77 W/m2
10:34 5.4 °C 3.9 °C 1000.2 hPa Calm     90% 0 mm 77 W/m2
10:39 5.5 °C 4 °C 1000.2 hPa Calm     90% 0 mm 79 W/m2
10:44 5.6 °C 4.1 °C 1000.2 hPa Calm     90% 0 mm 91 W/m2
10:49 5.7 °C 4.2 °C 1000.2 hPa Calm     90% 0 mm 91 W/m2
10:54 5.7 °C 4.3 °C 1000.2 hPa Calm     90% 0 mm 107 W/m2
10:59 5.8 °C 4.4 °C 1000.2 hPa Calm   1.6 km/h 90.2% 0 mm 105 W/m2
11:04 5.9 °C 4.4 °C 1000.2 hPa Calm     90% 0 mm 104 W/m2
11:09 6.2 °C 4.7 °C 1000.2 hPa Calm     90.4% 0 mm 104 W/m2
11:14 6.3 °C 4.9 °C 1000.2 hPa Calm     91% 0 mm 107 W/m2
11:19 6.4 °C 4.9 °C 1000.2 hPa Calm     90.2% 0 mm 109 W/m2
11:24 6.5 °C 5 °C 1000.2 hPa Calm     90% 0 mm 127 W/m2
11:29 6.6 °C 5.1 °C 999.9 hPa Calm   1.6 km/h 90% 0 mm 137 W/m2
11:34 6.7 °C 5.2 °C 999.9 hPa Calm     90% 0 mm 141 W/m2
11:39 6.8 °C 5.3 °C 999.9 hPa Calm   1.6 km/h 90% 0 mm 102 W/m2
11:44 7 °C 5.5 °C 999.5 hPa Calm     90% 0 mm 107 W/m2
11:49 7.2 °C 5.7 °C 999.5 hPa Calm     90% 0 mm 128 W/m2
11:54 7.3 °C 5.8 °C 999.5 hPa Calm     90% 0 mm 144 W/m2
11:58 7.7 °C 6.1 °C 999.5 hPa WSW 0.5 km/h 1.6 km/h 89.8% 0 mm 125 W/m2
12:04 7.8 °C 6.1 °C 999.5 hPa Calm   1.6 km/h 89% 0 mm 120 W/m2
12:09 7.7 °C 5.7 °C 999.5 hPa WSW 0.3 km/h 3.2 km/h 87.8% 0 mm 113 W/m2
12:14 7.6 °C 5.5 °C 999.5 hPa WSW 1 km/h 4.8 km/h 86.6% 0 mm 183 W/m2
12:19 7.7 °C 5.3 °C 999.5 hPa SW 1.6 km/h 4.8 km/h 84.8% 0 mm 176 W/m2
12:24 7.8 °C 5 °C 999.5 hPa SW 1.3 km/h 4.8 km/h 82.4% 0 mm 148 W/m2
12:29 7.9 °C 4.8 °C 999.5 hPa SW 3.9 km/h 8 km/h 81% 0 mm 209 W/m2
12:34 7.9 °C 4.8 °C 999.5 hPa SW 2.7 km/h 8 km/h 80% 0 mm 155 W/m2
12:39 8.1 °C 4.9 °C 999.5 hPa SW 1.3 km/h 8 km/h 80% 0 mm 229 W/m2
12:44 8.3 °C 5.1 °C 999.5 hPa SW 1.4 km/h 8 km/h 79.4% 0 mm 193 W/m2
12:49 8.7 °C 5.3 °C 999.5 hPa SW 1.6 km/h 3.2 km/h 79.4% 0 mm 200 W/m2
12:54 9.1 °C 5.7 °C 999.5 hPa SW 3.2 km/h 6.4 km/h 79.4% 0 mm 195 W/m2
12:58 8.8 °C 5 °C 999.2 hPa SW 1.9 km/h 4.8 km/h 77% 0 mm 197 W/m2
13:04 9.1 °C 5.5 °C 999.2 hPa SW 0.6 km/h 3.2 km/h 78.2% 0 mm 195 W/m2
13:09 9.1 °C 5.3 °C 999.2 hPa SW 3.5 km/h 9.7 km/h 77.2% 0 mm 171 W/m2
13:14 9.4 °C 5.9 °C 999.2 hPa SW 1 km/h 12.9 km/h 78.6% 0 mm 160 W/m2
13:19 9.2 °C 5.3 °C 999.2 hPa SW 1 km/h 4.8 km/h 76.4% 0 mm 139 W/m2
13:24 9.2 °C 5.6 °C 999.2 hPa SW 2.6 km/h 9.7 km/h 77.6% 0 mm 135 W/m2
13:29 9.7 °C 6 °C 999.2 hPa SW 1.1 km/h 9.7 km/h 78% 0 mm 134 W/m2
13:34 9.7 °C 5.9 °C 999.2 hPa Calm     77.4% 0 mm 93 W/m2
13:39 9.4 °C 5.7 °C 999.2 hPa SSW 5.1 km/h 16.1 km/h 77% 0 mm 97 W/m2
13:44 8.8 °C 5.2 °C 999.2 hPa South 7.7 km/h 16.1 km/h 77.6% 0 mm 100 W/m2
13:49 8.7 °C 5.2 °C 999.2 hPa South 8 km/h 14.5 km/h 78.8% 0 mm 114 W/m2
13:54 8.5 °C 5.1 °C 998.9 hPa South 5.8 km/h 14.5 km/h 79% 0 mm 111 W/m2
13:59 8.7 °C 5.3 °C 998.9 hPa South 9 km/h 16.1 km/h 79.8% 0 mm 125 W/m2
14:04 8.6 °C 5.2 °C 998.9 hPa South 3.5 km/h 12.9 km/h 79% 0 mm 97 W/m2
14:09 8.6 °C 5.2 °C 998.9 hPa South 1.9 km/h 6.4 km/h 79% 0 mm 86 W/m2
14:14 8.7 °C 5.3 °C 998.9 hPa South 5.1 km/h 11.3 km/h 79% 0 mm 84 W/m2
14:19 8.6 °C 5.2 °C 998.9 hPa South 1.9 km/h 9.7 km/h 79% 0 mm 65 W/m2
14:24 8.6 °C 5.2 °C 998.9 hPa South 1.6 km/h 9.7 km/h 79% 0 mm 67 W/m2
14:29 8.4 °C 5.1 °C 998.9 hPa South 0.3 km/h 9.7 km/h 79% 0 mm 67 W/m2
14:34 8.4 °C 5 °C 998.9 hPa Calm   1.6 km/h 79% 0 mm 65 W/m2
14:39 8.5 °C 5.2 °C 998.9 hPa Calm     79.6% 0 mm 56 W/m2
14:44 8.6 °C 5.3 °C 998.9 hPa South 1.3 km/h 8 km/h 80% 0 mm 42 W/m2
14:49 8.6 °C 5.3 °C 998.9 hPa Calm     80% 0 mm 40 W/m2
14:54 8.6 °C 5.4 °C 998.9 hPa Calm     80.4% 0 mm 39 W/m2
14:58 8.6 °C 5.5 °C 998.9 hPa Calm     81% 0 mm 39 W/m2
15:04 8.6 °C 5.4 °C 998.9 hPa Calm     81% 0 mm 40 W/m2
15:09 8.4 °C 5.3 °C 998.9 hPa South 0.6 km/h 3.2 km/h 81% 0 mm 37 W/m2
15:14 8.3 °C 5.3 °C 998.9 hPa Calm   1.6 km/h 81.6% 0 mm 26 W/m2
15:19 8.1 °C 5.2 °C 998.9 hPa Calm   1.6 km/h 82% 0 mm 25 W/m2
15:24 7.9 °C 5 °C 998.9 hPa Calm   1.6 km/h 82% 0 mm 19 W/m2
15:29 7.8 °C 5.1 °C 998.9 hPa South 0.3 km/h 1.6 km/h 83% 0 mm 16 W/m2
15:34 7.8 °C 5.1 °C 998.9 hPa Calm     83% 0 mm 16 W/m2
15:39 7.7 °C 5.2 °C 998.9 hPa Calm     83.8% 0 mm 12 W/m2
15:44 7.6 °C 5.1 °C 998.9 hPa Calm     84% 0 mm 11 W/m2
15:49 7.4 °C 4.9 °C 998.9 hPa Calm     84% 0 mm 9 W/m2
15:54 7.3 °C 4.8 °C 998.9 hPa Calm     84.4% 0 mm 5 W/m2
15:59 7.2 °C 4.8 °C 998.9 hPa Calm     85% 0 mm 0 W/m2
16:04 7.1 °C 4.7 °C 998.9 hPa Calm     85.2% 0 mm 0 W/m2
16:09 7 °C 4.8 °C 998.9 hPa Calm     86% 0 mm 0 W/m2
16:13 6.9 °C 4.8 °C 998.9 hPa Calm     86% 0 mm 0 W/m2
16:19 6.9 °C 4.7 °C 998.9 hPa Calm     86% 0 mm 0 W/m2
16:24 6.8 °C 4.7 °C 998.5 hPa Calm     86% 0 mm 0 W/m2
16:29 6.8 °C 4.7 °C 998.5 hPa Calm     86.2% 0 mm 0 W/m2
16:34 6.7 °C 4.6 °C 998.5 hPa Calm     86.2% 0 mm 0 W/m2
16:39 6.6 °C 4.6 °C 998.5 hPa Calm     87% 0 mm 0 W/m2
16:44 6.5 °C 4.5 °C 998.5 hPa Calm     87% 0 mm 0 W/m2
16:49 6.4 °C 4.3 °C 998.9 hPa Calm     87% 0 mm 0 W/m2
16:54 6.3 °C 4.3 °C 998.9 hPa Calm     87.2% 0 mm 0 W/m2
16:59 6.3 °C 4.4 °C 998.9 hPa Calm     88% 0 mm 0 W/m2
17:04 6.2 °C 4.4 °C 998.9 hPa Calm     88% 0 mm 0 W/m2
17:09 6.3 °C 4.5 °C 998.9 hPa Calm     88% 0 mm 0 W/m2
17:14 6.2 °C 4.4 °C 998.9 hPa Calm     88% 0 mm 0 W/m2
17:19 6.2 °C 4.3 °C 998.5 hPa Calm     88% 0 mm 0 W/m2
17:24 6.1 °C 4.3 °C 998.5 hPa Calm     88.6% 0 mm 0 W/m2
17:29 6.1 °C 4.4 °C 998.5 hPa Calm     89% 0 mm 0 W/m2
17:34 5.9 °C 4.2 °C 998.5 hPa Calm     89% 0 mm 0 W/m2
17:39 5.9 °C 4.2 °C 998.5 hPa Calm     89% 0 mm 0 W/m2
17:44 5.8 °C 4.1 °C 998.5 hPa Calm     89% 0 mm 0 W/m2
17:49 5.8 °C 4.1 °C 998.5 hPa Calm     89% 0 mm 0 W/m2
17:54 5.8 °C 4.1 °C 998.5 hPa Calm     89% 0 mm 0 W/m2
17:59 5.8 °C 4.1 °C 998.5 hPa Calm     89% 0 mm 0 W/m2
18:04 5.8 °C 4.2 °C 998.5 hPa Calm     89.8% 0 mm 0 W/m2
18:09 5.7 °C 4.2 °C 998.5 hPa Calm     90% 0 mm 0 W/m2
18:14 5.7 °C 4.2 °C 998.5 hPa Calm     90% 0 mm 0 W/m2
18:19 5.7 °C 4.2 °C 998.5 hPa Calm     90% 0 mm 0 W/m2
18:24 5.7 °C 4.2 °C 998.2 hPa Calm     90% 0 mm 0 W/m2
18:29 5.7 °C 4.2 °C 998.5 hPa Calm     90% 0 mm 0 W/m2
18:34 5.5 °C 4 °C 998.5 hPa Calm     90% 0 mm 0 W/m2
18:39 5.5 °C 4 °C 998.5 hPa Calm     90% 0 mm 0 W/m2
18:44 5.5 °C 4 °C 998.5 hPa Calm     90% 0 mm 0 W/m2
18:48 5.5 °C 4 °C 998.5 hPa Calm     90% 0 mm 0 W/m2
18:54 5.5 °C 4 °C 998.5 hPa Calm     90% 0 mm 0 W/m2
18:59 5.6 °C 4.2 °C 998.5 hPa Calm     90.8% 0 mm 0 W/m2
19:04 5.5 °C 4.1 °C 998.2 hPa Calm     91% 0 mm 0 W/m2
19:09 5.4 °C 4 °C 998.5 hPa Calm     91% 0 mm 0 W/m2
19:14 5.4 °C 4 °C 998.5 hPa Calm     91% 0 mm 0 W/m2
19:19 5.4 °C 4 °C 998.5 hPa Calm     91% 0 mm 0 W/m2
19:24 5.3 °C 4 °C 998.2 hPa Calm     91% 0 mm 0 W/m2
19:29 5.3 °C 4 °C 998.5 hPa Calm     91% 0 mm 0 W/m2
19:34 5.3 °C 4 °C 998.5 hPa Calm     91% 0 mm 0 W/m2
19:39 5.3 °C 4 °C 998.5 hPa Calm     91% 0 mm 0 W/m2
19:44 5.3 °C 4 °C 998.5 hPa Calm     91% 0 mm 0 W/m2
19:49 5.3 °C 4 °C 998.5 hPa Calm     91% 0 mm 0 W/m2
19:54 5.3 °C 4 °C 998.5 hPa Calm     91% 0 mm 0 W/m2
19:59 5.3 °C 4 °C 998.5 hPa Calm     91% 0 mm 0 W/m2
20:04 5.3 °C 4 °C 998.5 hPa Calm     91% 0 mm 0 W/m2
20:09 5.3 °C 4.1 °C 998.2 hPa Calm     91.4% 0 mm 0 W/m2
20:14 5.3 °C 4.1 °C 998.5 hPa Calm     91.5% 0 mm 0 W/m2
20:19 5.4 °C 4.2 °C 998.2 hPa Calm     91.6% 0 mm 0 W/m2
20:24 5.5 °C 4.3 °C 998.2 hPa Calm     92% 0 mm 0 W/m2
20:29 5.6 °C 4.4 °C 998.2 hPa Calm     92% 0 mm 0 W/m2
20:34 5.4 °C 4.2 °C 998.2 hPa Calm     92% 0 mm 0 W/m2
20:38 5.3 °C 4.2 °C 998.2 hPa Calm     92% 0 mm 0 W/m2
20:44 5.3 °C 4.2 °C 998.2 hPa Calm     92% 0 mm 0 W/m2
20:49 5.3 °C 4.2 °C 998.2 hPa Calm     92% 0 mm 0 W/m2
20:54 5.4 °C 4.2 °C 997.9 hPa Calm     92% 0 mm 0 W/m2
20:59 5.4 °C 4.2 °C 997.9 hPa Calm     92% 0 mm 0 W/m2
21:04 5.5 °C 4.3 °C 997.9 hPa Calm     92% 0 mm 0 W/m2
21:09 5.6 °C 4.4 °C 997.9 hPa Calm     92% 0 mm 0 W/m2
21:14 5.6 °C 4.3 °C 997.9 hPa Calm     92% 0 mm 0 W/m2
21:19 5.5 °C 4.3 °C 997.9 hPa Calm     92% 0 mm 0 W/m2
21:24 5.4 °C 4.2 °C 997.9 hPa Calm     92% 0 mm 0 W/m2
21:29 5.4 °C 4.2 °C 997.9 hPa Calm     92% 0 mm 0 W/m2
21:34 5.3 °C 4.2 °C 997.9 hPa Calm     92% 0 mm 0 W/m2
21:39 5.3 °C 4.1 °C 997.9 hPa Calm     92% 0 mm 0 W/m2
21:44 5.3 °C 4.1 °C 997.9 hPa Calm     92% 0 mm 0 W/m2
21:49 5.3 °C 4.1 °C 997.9 hPa Calm     92% 0 mm 0 W/m2
21:54 5.3 °C 4.1 °C 997.5 hPa Calm     92% 0 mm 0 W/m2
21:59 5.3 °C 4.3 °C 997.5 hPa Calm     93% 0 mm 0 W/m2
22:04 5.2 °C 4.2 °C 997.5 hPa Calm     93% 0 mm 0 W/m2
22:08 5.2 °C 4.2 °C 997.5 hPa Calm     93% 0 mm 0 W/m2
22:14 5.1 °C 3.9 °C 997.5 hPa Calm     92% 0 mm 0 W/m2
22:19 5.1 °C 4 °C 997.5 hPa Calm     92.6% 0 mm 0 W/m2
22:24 5.1 °C 4.1 °C 997.5 hPa South 0.6 km/h 3.2 km/h 93% 0 mm 0 W/m2
22:29 5.1 °C 4.1 °C 997.5 hPa Calm     93% 0 mm 0 W/m2
22:34 5.1 °C 4.1 °C 997.5 hPa Calm     93% 0 mm 0 W/m2
22:39 5.1 °C 4.1 °C 997.5 hPa Calm     93% 0 mm 0 W/m2
22:44 5.1 °C 4.1 °C 997.5 hPa Calm     93% 0 mm 0 W/m2
22:49 5.1 °C 4.1 °C 997.5 hPa Calm     93% 0 mm 0 W/m2
22:54 5.1 °C 4.1 °C 997.5 hPa Calm     93% 0 mm 0 W/m2
22:59 5.1 °C 4.1 °C 997.5 hPa Calm     93% 0 mm 0 W/m2
23:04 5.1 °C 4.1 °C 997.5 hPa Calm     93% 0 mm 0 W/m2
23:09 5.1 °C 4.1 °C 997.5 hPa Calm     93% 0 mm 0 W/m2
23:14 5.2 °C 4.2 °C 997.5 hPa South 0.3 km/h 1.6 km/h 93% 0 mm 0 W/m2
23:19 5.2 °C 4.2 °C 997.5 hPa Calm     93% 0 mm 0 W/m2
23:24 5.2 °C 4.2 °C 997.5 hPa Calm     93% 0 mm 0 W/m2
23:29 5.2 °C 4.2 °C 997.5 hPa Calm     93% 0 mm 0 W/m2
23:34 5.2 °C 4.2 °C 997.5 hPa Calm     93% 0 mm 0 W/m2
23:39 5.2 °C 4.2 °C 997.5 hPa Calm     93% 0 mm 0 W/m2
23:44 5.2 °C 4.2 °C 997.5 hPa Calm     93% 0 mm 0 W/m2
23:49 5.3 °C 4.3 °C 997.5 hPa Calm     93% 0 mm 0 W/m2
23:54 5.3 °C 4.3 °C 997.5 hPa Calm     93% 0 mm 0 W/m2
23:59 5.3 °C 4.3 °C 997.5 hPa Calm     93% 0 mm 0 W/m2
Bath Spa Weather
Compliments of Weather Underground - 2 mb